Terminal Aerodrome Forecast
Issued by NWS

Home | Current Version | Previous Version | Graphics & Text | Print | Product List | Glossary On
Versions: 1 2 3 4 5 6 7 8 9 10 11 12 13 14 15 16 17 18 19 20 21 22 23 24 25 26 27 28
000
FTUS43 KGRB 192300
TAFRHI
TAF
KRHI 192335Z 2000/2024 23007KT P6SM FEW030 SCT100
     FM200400 27006KT P6SM SCT040 SCT070
     FM200900 29007KT P6SM SCT030 BKN050
     FM201200 30009KT P6SM BKN030
     FM201500 32010G15KT P6SM VCSH BKN025 BKN040=

USA.gov is the U.S. government's official web portal to all federal, state and local government web resources and services.